sensor_id;sensor_type;location;lat;lon;timestamp;P1;durP1;ratioP1;P2;durP2;ratioP2
13641;SDS011;6894;52.196;9.904;2023-05-10T00:00:07;2.07;;;1.77;;
13641;SDS011;6894;52.196;9.904;2023-05-10T00:02:35;3.53;;;2.10;;
13641;SDS011;6894;52.196;9.904;2023-05-10T00:05:03;2.90;;;2.10;;
13641;SDS011;6894;52.196;9.904;2023-05-10T00:07:31;2.40;;;2.07;;
13641;SDS011;6894;52.196;9.904;2023-05-10T00:09:58;2.33;;;1.97;;
13641;SDS011;6894;52.196;9.904;2023-05-10T00:12:24;2.97;;;2.03;;
13641;SDS011;6894;52.196;9.904;2023-05-10T00:14:51;4.27;;;2.60;;
13641;SDS011;6894;52.196;9.904;2023-05-10T00:17:18;6.67;;;2.57;;
13641;SDS011;6894;52.196;9.904;2023-05-10T00:19:45;4.00;;;2.50;;
13641;SDS011;6894;52.196;9.904;2023-05-10T00:22:13;2.53;;;2.33;;
13641;SDS011;6894;52.196;9.904;2023-05-10T00:24:40;4.33;;;2.10;;
13641;SDS011;6894;52.196;9.904;2023-05-10T00:27:06;3.67;;;2.30;;
13641;SDS011;6894;52.196;9.904;2023-05-10T00:29:33;3.17;;;2.33;;
13641;SDS011;6894;52.196;9.904;2023-05-10T00:32:00;6.43;;;2.40;;
13641;SDS011;6894;52.196;9.904;2023-05-10T00:34:26;2.10;;;1.87;;
13641;SDS011;6894;52.196;9.904;2023-05-10T00:36:53;4.20;;;2.57;;
13641;SDS011;6894;52.196;9.904;2023-05-10T00:39:22;4.07;;;2.90;;
13641;SDS011;6894;52.196;9.904;2023-05-10T00:41:49;2.90;;;1.93;;
13641;SDS011;6894;52.196;9.904;2023-05-10T00:44:16;4.57;;;2.60;;
13641;SDS011;6894;52.196;9.904;2023-05-10T00:46:43;3.83;;;2.17;;
13641;SDS011;6894;52.196;9.904;2023-05-10T00:49:10;4.37;;;2.60;;
13641;SDS011;6894;52.196;9.904;2023-05-10T00:51:37;4.73;;;2.40;;
13641;SDS011;6894;52.196;9.904;2023-05-10T00:54:04;2.90;;;2.57;;
13641;SDS011;6894;52.196;9.904;2023-05-10T00:56:33;3.77;;;2.40;;
13641;SDS011;6894;52.196;9.904;2023-05-10T00:59:00;4.03;;;2.73;;
13641;SDS011;6894;52.196;9.904;2023-05-10T01:01:27;4.77;;;2.70;;
13641;SDS011;6894;52.196;9.904;2023-05-10T01:03:54;3.10;;;2.40;;
13641;SDS011;6894;52.196;9.904;2023-05-10T01:06:22;3.53;;;2.80;;
13641;SDS011;6894;52.196;9.904;2023-05-10T01:08:48;3.83;;;2.43;;
13641;SDS011;6894;52.196;9.904;2023-05-10T01:11:15;4.30;;;2.73;;
13641;SDS011;6894;52.196;9.904;2023-05-10T01:13:43;2.97;;;2.10;;
13641;SDS011;6894;52.196;9.904;2023-05-10T01:16:16;3.13;;;2.80;;
13641;SDS011;6894;52.196;9.904;2023-05-10T01:18:43;3.43;;;2.60;;
13641;SDS011;6894;52.196;9.904;2023-05-10T01:21:15;3.33;;;2.63;;
13641;SDS011;6894;52.196;9.904;2023-05-10T01:33:11;4.80;;;3.20;;
13641;SDS011;6894;52.196;9.904;2023-05-10T01:35:46;4.17;;;2.93;;
13641;SDS011;6894;52.196;9.904;2023-05-10T01:38:18;4.33;;;3.10;;
13641;SDS011;6894;52.196;9.904;2023-05-10T01:40:56;6.47;;;3.30;;
13641;SDS011;6894;52.196;9.904;2023-05-10T01:43:30;4.57;;;2.80;;
13641;SDS011;6894;52.196;9.904;2023-05-10T01:46:03;3.07;;;2.77;;
13641;SDS011;6894;52.196;9.904;2023-05-10T01:48:37;3.30;;;3.00;;
13641;SDS011;6894;52.196;9.904;2023-05-10T01:51:11;5.00;;;3.30;;
13641;SDS011;6894;52.196;9.904;2023-05-10T01:53:41;3.53;;;2.83;;
13641;SDS011;6894;52.196;9.904;2023-05-10T01:56:10;2.83;;;2.50;;
13641;SDS011;6894;52.196;9.904;2023-05-10T01:58:39;3.07;;;2.70;;
13641;SDS011;6894;52.196;9.904;2023-05-10T02:01:10;5.43;;;2.87;;
13641;SDS011;6894;52.196;9.904;2023-05-10T02:03:39;4.07;;;2.87;;
13641;SDS011;6894;52.196;9.904;2023-05-10T02:06:08;5.37;;;3.70;;
13641;SDS011;6894;52.196;9.904;2023-05-10T02:08:38;4.30;;;3.00;;
13641;SDS011;6894;52.196;9.904;2023-05-10T02:11:07;3.67;;;3.20;;
13641;SDS011;6894;52.196;9.904;2023-05-10T02:13:36;3.23;;;2.87;;
13641;SDS011;6894;52.196;9.904;2023-05-10T02:16:05;5.03;;;3.00;;
13641;SDS011;6894;52.196;9.904;2023-05-10T02:18:32;3.40;;;3.10;;
13641;SDS011;6894;52.196;9.904;2023-05-10T02:21:02;4.90;;;3.20;;
13641;SDS011;6894;52.196;9.904;2023-05-10T02:23:29;3.93;;;2.73;;
13641;SDS011;6894;52.196;9.904;2023-05-10T02:25:57;3.30;;;2.93;;
13641;SDS011;6894;52.196;9.904;2023-05-10T02:28:26;3.73;;;3.40;;
13641;SDS011;6894;52.196;9.904;2023-05-10T02:30:55;4.00;;;3.60;;
13641;SDS011;6894;52.196;9.904;2023-05-10T02:33:22;4.63;;;3.30;;
13641;SDS011;6894;52.196;9.904;2023-05-10T02:35:50;3.57;;;2.80;;
13641;SDS011;6894;52.196;9.904;2023-05-10T02:38:20;4.60;;;3.53;;
13641;SDS011;6894;52.196;9.904;2023-05-10T02:40:47;5.30;;;3.23;;
13641;SDS011;6894;52.196;9.904;2023-05-10T02:43:14;6.03;;;3.40;;
13641;SDS011;6894;52.196;9.904;2023-05-10T02:45:43;3.97;;;3.00;;
13641;SDS011;6894;52.196;9.904;2023-05-10T02:48:13;4.57;;;3.50;;
13641;SDS011;6894;52.196;9.904;2023-05-10T02:50:39;2.87;;;2.67;;
13641;SDS011;6894;52.196;9.904;2023-05-10T02:53:11;3.33;;;3.03;;
13641;SDS011;6894;52.196;9.904;2023-05-10T02:55:43;4.60;;;3.17;;
13641;SDS011;6894;52.196;9.904;2023-05-10T02:58:13;3.30;;;2.93;;
13641;SDS011;6894;52.196;9.904;2023-05-10T03:00:40;3.80;;;3.37;;
13641;SDS011;6894;52.196;9.904;2023-05-10T03:03:07;4.93;;;3.07;;
13641;SDS011;6894;52.196;9.904;2023-05-10T03:05:33;4.23;;;3.83;;
13641;SDS011;6894;52.196;9.904;2023-05-10T03:08:00;4.47;;;3.57;;
13641;SDS011;6894;52.196;9.904;2023-05-10T03:10:29;4.20;;;3.80;;
13641;SDS011;6894;52.196;9.904;2023-05-10T03:13:06;3.63;;;3.30;;
13641;SDS011;6894;52.196;9.904;2023-05-10T03:15:42;4.13;;;3.57;;
13641;SDS011;6894;52.196;9.904;2023-05-10T03:18:21;3.93;;;3.53;;
13641;SDS011;6894;52.196;9.904;2023-05-10T03:20:49;5.00;;;4.10;;
13641;SDS011;6894;52.196;9.904;2023-05-10T03:23:21;3.60;;;3.30;;
13641;SDS011;6894;52.196;9.904;2023-05-10T03:25:58;6.67;;;4.50;;
13641;SDS011;6894;52.196;9.904;2023-05-10T03:28:27;4.37;;;3.60;;
13641;SDS011;6894;52.196;9.904;2023-05-10T03:30:55;6.30;;;4.40;;
13641;SDS011;6894;52.196;9.904;2023-05-10T03:33:22;4.10;;;3.70;;
13641;SDS011;6894;52.196;9.904;2023-05-10T03:35:49;5.23;;;3.83;;
13641;SDS011;6894;52.196;9.904;2023-05-10T03:38:16;4.63;;;4.13;;
13641;SDS011;6894;52.196;9.904;2023-05-10T03:40:42;4.97;;;4.33;;
13641;SDS011;6894;52.196;9.904;2023-05-10T03:43:09;5.20;;;4.13;;
13641;SDS011;6894;52.196;9.904;2023-05-10T03:45:37;7.73;;;4.67;;
13641;SDS011;6894;52.196;9.904;2023-05-10T03:48:05;5.50;;;4.73;;
13641;SDS011;6894;52.196;9.904;2023-05-10T03:50:32;5.53;;;4.83;;
13641;SDS011;6894;52.196;9.904;2023-05-10T03:52:58;4.90;;;4.40;;
13641;SDS011;6894;52.196;9.904;2023-05-10T03:55:25;5.00;;;4.50;;
13641;SDS011;6894;52.196;9.904;2023-05-10T03:57:52;5.23;;;4.73;;
13641;SDS011;6894;52.196;9.904;2023-05-10T04:00:19;5.80;;;5.30;;
13641;SDS011;6894;52.196;9.904;2023-05-10T04:02:47;6.10;;;4.97;;
13641;SDS011;6894;52.196;9.904;2023-05-10T04:05:14;5.67;;;5.10;;
13641;SDS011;6894;52.196;9.904;2023-05-10T04:07:41;6.97;;;5.00;;
13641;SDS011;6894;52.196;9.904;2023-05-10T04:10:09;8.67;;;5.57;;
13641;SDS011;6894;52.196;9.904;2023-05-10T04:12:36;5.73;;;5.23;;
13641;SDS011;6894;52.196;9.904;2023-05-10T04:15:03;5.90;;;5.30;;
13641;SDS011;6894;52.196;9.904;2023-05-10T04:17:31;5.77;;;5.27;;
13641;SDS011;6894;52.196;9.904;2023-05-10T04:19:59;6.33;;;5.73;;
13641;SDS011;6894;52.196;9.904;2023-05-10T04:22:26;5.93;;;4.60;;
13641;SDS011;6894;52.196;9.904;2023-05-10T04:24:54;7.27;;;5.70;;
13641;SDS011;6894;52.196;9.904;2023-05-10T04:27:20;5.77;;;5.20;;
13641;SDS011;6894;52.196;9.904;2023-05-10T04:29:48;7.80;;;5.43;;
13641;SDS011;6894;52.196;9.904;2023-05-10T04:32:15;5.23;;;4.83;;
13641;SDS011;6894;52.196;9.904;2023-05-10T04:34:42;7.27;;;5.47;;
13641;SDS011;6894;52.196;9.904;2023-05-10T04:37:10;5.87;;;5.20;;
13641;SDS011;6894;52.196;9.904;2023-05-10T04:39:37;6.47;;;5.87;;
13641;SDS011;6894;52.196;9.904;2023-05-10T04:42:04;6.20;;;5.70;;
13641;SDS011;6894;52.196;9.904;2023-05-10T04:44:31;5.77;;;5.27;;
13641;SDS011;6894;52.196;9.904;2023-05-10T04:46:58;5.70;;;5.20;;
13641;SDS011;6894;52.196;9.904;2023-05-10T04:49:24;6.70;;;5.97;;
13641;SDS011;6894;52.196;9.904;2023-05-10T04:51:51;6.43;;;5.83;;
13641;SDS011;6894;52.196;9.904;2023-05-10T04:54:19;6.87;;;6.27;;
13641;SDS011;6894;52.196;9.904;2023-05-10T04:56:46;6.50;;;5.90;;
13641;SDS011;6894;52.196;9.904;2023-05-10T04:59:13;7.43;;;6.37;;
13641;SDS011;6894;52.196;9.904;2023-05-10T05:01:40;6.33;;;5.83;;
13641;SDS011;6894;52.196;9.904;2023-05-10T05:04:06;6.40;;;5.80;;
13641;SDS011;6894;52.196;9.904;2023-05-10T05:06:33;6.53;;;5.90;;
13641;SDS011;6894;52.196;9.904;2023-05-10T05:09:00;6.47;;;5.87;;
13641;SDS011;6894;52.196;9.904;2023-05-10T05:11:29;6.47;;;5.97;;
13641;SDS011;6894;52.196;9.904;2023-05-10T05:13:55;5.73;;;4.73;;
13641;SDS011;6894;52.196;9.904;2023-05-10T05:16:23;4.57;;;4.17;;
13641;SDS011;6894;52.196;9.904;2023-05-10T05:18:50;5.23;;;4.37;;
13641;SDS011;6894;52.196;9.904;2023-05-10T05:21:17;4.50;;;4.10;;
13641;SDS011;6894;52.196;9.904;2023-05-10T05:23:45;4.63;;;4.23;;
13641;SDS011;6894;52.196;9.904;2023-05-10T05:26:12;4.53;;;4.20;;
13641;SDS011;6894;52.196;9.904;2023-05-10T05:28:41;5.80;;;4.57;;
13641;SDS011;6894;52.196;9.904;2023-05-10T05:31:08;5.83;;;4.67;;
13641;SDS011;6894;52.196;9.904;2023-05-10T05:33:35;5.03;;;4.17;;
13641;SDS011;6894;52.196;9.904;2023-05-10T05:36:01;6.23;;;4.50;;
13641;SDS011;6894;52.196;9.904;2023-05-10T05:38:29;6.47;;;4.67;;
13641;SDS011;6894;52.196;9.904;2023-05-10T05:40:56;5.70;;;4.57;;
13641;SDS011;6894;52.196;9.904;2023-05-10T05:43:24;4.70;;;4.30;;
13641;SDS011;6894;52.196;9.904;2023-05-10T05:45:53;4.93;;;4.50;;
13641;SDS011;6894;52.196;9.904;2023-05-10T05:48:19;4.53;;;4.13;;
13641;SDS011;6894;52.196;9.904;2023-05-10T05:50:47;5.37;;;4.27;;
13641;SDS011;6894;52.196;9.904;2023-05-10T05:53:14;5.93;;;4.80;;
13641;SDS011;6894;52.196;9.904;2023-05-10T05:55:46;5.10;;;4.70;;
13641;SDS011;6894;52.196;9.904;2023-05-10T05:58:17;6.27;;;4.83;;
13641;SDS011;6894;52.196;9.904;2023-05-10T06:00:44;6.77;;;4.87;;
13641;SDS011;6894;52.196;9.904;2023-05-10T06:03:12;6.50;;;5.50;;
13641;SDS011;6894;52.196;9.904;2023-05-10T06:05:39;5.97;;;5.47;;
13641;SDS011;6894;52.196;9.904;2023-05-10T06:08:05;5.60;;;5.00;;
13641;SDS011;6894;52.196;9.904;2023-05-10T06:10:32;5.07;;;4.57;;
13641;SDS011;6894;52.196;9.904;2023-05-10T06:12:59;6.13;;;4.70;;
13641;SDS011;6894;52.196;9.904;2023-05-10T06:15:26;6.50;;;5.43;;
13641;SDS011;6894;52.196;9.904;2023-05-10T06:17:53;6.30;;;5.53;;
13641;SDS011;6894;52.196;9.904;2023-05-10T06:20:21;5.30;;;4.77;;
13641;SDS011;6894;52.196;9.904;2023-05-10T06:22:48;5.93;;;5.43;;
13641;SDS011;6894;52.196;9.904;2023-05-10T06:25:15;5.90;;;5.33;;
13641;SDS011;6894;52.196;9.904;2023-05-10T06:27:43;6.33;;;5.57;;
13641;SDS011;6894;52.196;9.904;2023-05-10T06:30:10;6.23;;;5.07;;
13641;SDS011;6894;52.196;9.904;2023-05-10T06:32:38;5.60;;;5.00;;
13641;SDS011;6894;52.196;9.904;2023-05-10T06:35:05;5.77;;;5.30;;
13641;SDS011;6894;52.196;9.904;2023-05-10T06:37:34;5.77;;;5.27;;
13641;SDS011;6894;52.196;9.904;2023-05-10T06:40:01;5.43;;;5.00;;
13641;SDS011;6894;52.196;9.904;2023-05-10T06:42:28;5.70;;;5.20;;
13641;SDS011;6894;52.196;9.904;2023-05-10T06:44:55;5.70;;;5.20;;
13641;SDS011;6894;52.196;9.904;2023-05-10T06:47:22;6.10;;;5.27;;
13641;SDS011;6894;52.196;9.904;2023-05-10T06:49:49;6.83;;;6.13;;
13641;SDS011;6894;52.196;9.904;2023-05-10T06:52:16;6.10;;;5.60;;
13641;SDS011;6894;52.196;9.904;2023-05-10T06:54:44;6.10;;;5.60;;
13641;SDS011;6894;52.196;9.904;2023-05-10T06:57:10;7.40;;;5.87;;
13641;SDS011;6894;52.196;9.904;2023-05-10T06:59:37;5.87;;;5.30;;
13641;SDS011;6894;52.196;9.904;2023-05-10T07:02:04;5.37;;;4.87;;
13641;SDS011;6894;52.196;9.904;2023-05-10T07:04:31;6.17;;;5.57;;
13641;SDS011;6894;52.196;9.904;2023-05-10T07:06:58;5.50;;;5.00;;
13641;SDS011;6894;52.196;9.904;2023-05-10T07:09:25;5.60;;;4.93;;
13641;SDS011;6894;52.196;9.904;2023-05-10T07:11:53;5.30;;;4.87;;
13641;SDS011;6894;52.196;9.904;2023-05-10T07:14:22;6.00;;;5.50;;
13641;SDS011;6894;52.196;9.904;2023-05-10T07:16:49;5.83;;;5.20;;
13641;SDS011;6894;52.196;9.904;2023-05-10T07:19:15;7.63;;;5.30;;
13641;SDS011;6894;52.196;9.904;2023-05-10T07:21:42;5.37;;;4.87;;
13641;SDS011;6894;52.196;9.904;2023-05-10T07:24:09;5.37;;;4.30;;
13641;SDS011;6894;52.196;9.904;2023-05-10T07:26:36;7.47;;;4.73;;
13641;SDS011;6894;52.196;9.904;2023-05-10T07:29:04;5.70;;;4.93;;
13641;SDS011;6894;52.196;9.904;2023-05-10T07:31:31;6.53;;;5.50;;
13641;SDS011;6894;52.196;9.904;2023-05-10T07:33:58;8.40;;;5.00;;
13641;SDS011;6894;52.196;9.904;2023-05-10T07:36:25;5.97;;;5.37;;
13641;SDS011;6894;52.196;9.904;2023-05-10T07:38:52;5.00;;;4.53;;
13641;SDS011;6894;52.196;9.904;2023-05-10T07:41:19;4.50;;;4.10;;
13641;SDS011;6894;52.196;9.904;2023-05-10T07:43:47;4.07;;;3.67;;
13641;SDS011;6894;52.196;9.904;2023-05-10T07:46:15;4.00;;;3.70;;
13641;SDS011;6894;52.196;9.904;2023-05-10T07:48:42;4.00;;;3.60;;
13641;SDS011;6894;52.196;9.904;2023-05-10T07:51:08;3.97;;;3.57;;
13641;SDS011;6894;52.196;9.904;2023-05-10T07:53:35;3.57;;;3.27;;
13641;SDS011;6894;52.196;9.904;2023-05-10T07:58:49;3.77;;;3.37;;
13641;SDS011;6894;52.196;9.904;2023-05-10T08:01:18;3.97;;;3.20;;
13641;SDS011;6894;52.196;9.904;2023-05-10T08:03:45;3.87;;;3.57;;
13641;SDS011;6894;52.196;9.904;2023-05-10T08:06:12;2.53;;;2.33;;
13641;SDS011;6894;52.196;9.904;2023-05-10T08:08:38;3.20;;;2.90;;
13641;SDS011;6894;52.196;9.904;2023-05-10T08:11:05;2.83;;;2.60;;
13641;SDS011;6894;52.196;9.904;2023-05-10T08:13:32;3.03;;;2.60;;
13641;SDS011;6894;52.196;9.904;2023-05-10T08:15:59;2.70;;;2.33;;
13641;SDS011;6894;52.196;9.904;2023-05-10T08:18:27;2.97;;;2.40;;
13641;SDS011;6894;52.196;9.904;2023-05-10T08:20:54;2.97;;;2.77;;
13641;SDS011;6894;52.196;9.904;2023-05-10T08:23:21;2.30;;;2.10;;
13641;SDS011;6894;52.196;9.904;2023-05-10T08:25:48;3.60;;;3.07;;
13641;SDS011;6894;52.196;9.904;2023-05-10T08:28:15;3.13;;;2.83;;
13641;SDS011;6894;52.196;9.904;2023-05-10T08:30:42;3.47;;;2.80;;
13641;SDS011;6894;52.196;9.904;2023-05-10T08:33:09;2.93;;;2.73;;
13641;SDS011;6894;52.196;9.904;2023-05-10T08:35:37;3.27;;;2.97;;
13641;SDS011;6894;52.196;9.904;2023-05-10T08:38:04;3.07;;;2.27;;
13641;SDS011;6894;52.196;9.904;2023-05-10T08:40:31;2.20;;;2.00;;
13641;SDS011;6894;52.196;9.904;2023-05-10T08:43:02;2.10;;;1.93;;
13641;SDS011;6894;52.196;9.904;2023-05-10T08:45:32;2.03;;;1.83;;
13641;SDS011;6894;52.196;9.904;2023-05-10T08:48:05;1.80;;;1.37;;
13641;SDS011;6894;52.196;9.904;2023-05-10T08:50:33;1.60;;;1.50;;
13641;SDS011;6894;52.196;9.904;2023-05-10T08:53:04;0.93;;;0.93;;
13641;SDS011;6894;52.196;9.904;2023-05-10T08:55:32;1.27;;;0.80;;
13641;SDS011;6894;52.196;9.904;2023-05-10T08:58:01;1.13;;;1.03;;
13641;SDS011;6894;52.196;9.904;2023-05-10T09:00:28;1.00;;;1.00;;
13641;SDS011;6894;52.196;9.904;2023-05-10T09:02:55;0.77;;;0.77;;
13641;SDS011;6894;52.196;9.904;2023-05-10T09:05:23;1.13;;;0.80;;
13641;SDS011;6894;52.196;9.904;2023-05-10T09:07:50;0.70;;;0.70;;
13641;SDS011;6894;52.196;9.904;2023-05-10T09:10:19;0.50;;;0.50;;
13641;SDS011;6894;52.196;9.904;2023-05-10T09:12:46;1.53;;;1.00;;
13641;SDS011;6894;52.196;9.904;2023-05-10T09:15:14;0.60;;;0.57;;
13641;SDS011;6894;52.196;9.904;2023-05-10T09:17:44;0.83;;;0.60;;
13641;SDS011;6894;52.196;9.904;2023-05-10T09:20:11;0.60;;;0.47;;
13641;SDS011;6894;52.196;9.904;2023-05-10T09:22:38;0.30;;;0.30;;
13641;SDS011;6894;52.196;9.904;2023-05-10T09:25:06;0.60;;;0.30;;
13641;SDS011;6894;52.196;9.904;2023-05-10T09:27:37;0.87;;;0.30;;
13641;SDS011;6894;52.196;9.904;2023-05-10T09:30:06;0.33;;;0.33;;
13641;SDS011;6894;52.196;9.904;2023-05-10T09:32:37;0.40;;;0.40;;
13641;SDS011;6894;52.196;9.904;2023-05-10T09:35:11;1.00;;;0.50;;
13641;SDS011;6894;52.196;9.904;2023-05-10T09:37:39;0.70;;;0.70;;
13641;SDS011;6894;52.196;9.904;2023-05-10T09:40:08;0.60;;;0.60;;
13641;SDS011;6894;52.196;9.904;2023-05-10T09:42:40;0.93;;;0.60;;
13641;SDS011;6894;52.196;9.904;2023-05-10T09:45:08;1.20;;;1.10;;
13641;SDS011;6894;52.196;9.904;2023-05-10T09:47:35;1.10;;;0.70;;
13641;SDS011;6894;52.196;9.904;2023-05-10T09:50:02;1.37;;;0.60;;
13641;SDS011;6894;52.196;9.904;2023-05-10T09:52:30;0.80;;;0.60;;
13641;SDS011;6894;52.196;9.904;2023-05-10T09:55:11;0.87;;;0.70;;
13641;SDS011;6894;52.196;9.904;2023-05-10T09:57:39;1.33;;;0.77;;
13641;SDS011;6894;52.196;9.904;2023-05-10T10:00:07;1.67;;;0.70;;
13641;SDS011;6894;52.196;9.904;2023-05-10T10:02:35;0.97;;;0.97;;
13641;SDS011;6894;52.196;9.904;2023-05-10T10:05:02;0.83;;;0.77;;
13641;SDS011;6894;52.196;9.904;2023-05-10T10:07:29;2.20;;;0.77;;
13641;SDS011;6894;52.196;9.904;2023-05-10T10:09:56;1.37;;;1.20;;
13641;SDS011;6894;52.196;9.904;2023-05-10T10:12:24;1.13;;;1.03;;
13641;SDS011;6894;52.196;9.904;2023-05-10T10:14:53;0.70;;;0.70;;
13641;SDS011;6894;52.196;9.904;2023-05-10T10:17:20;0.90;;;0.90;;
13641;SDS011;6894;52.196;9.904;2023-05-10T10:19:47;1.27;;;0.87;;
13641;SDS011;6894;52.196;9.904;2023-05-10T10:22:15;0.97;;;0.97;;
13641;SDS011;6894;52.196;9.904;2023-05-10T10:24:43;0.73;;;0.73;;
13641;SDS011;6894;52.196;9.904;2023-05-10T10:27:15;1.13;;;0.90;;
13641;SDS011;6894;52.196;9.904;2023-05-10T10:29:52;1.10;;;1.00;;
13641;SDS011;6894;52.196;9.904;2023-05-10T10:32:32;1.80;;;1.10;;
13641;SDS011;6894;52.196;9.904;2023-05-10T10:35:06;1.20;;;1.10;;
13641;SDS011;6894;52.196;9.904;2023-05-10T10:37:44;1.63;;;1.43;;
13641;SDS011;6894;52.196;9.904;2023-05-10T10:40:24;1.37;;;1.23;;
13641;SDS011;6894;52.196;9.904;2023-05-10T10:42:52;1.63;;;1.20;;
13641;SDS011;6894;52.196;9.904;2023-05-10T10:45:21;1.47;;;1.37;;
13641;SDS011;6894;52.196;9.904;2023-05-10T10:47:51;1.60;;;1.50;;
13641;SDS011;6894;52.196;9.904;2023-05-10T10:50:45;1.60;;;1.50;;
13641;SDS011;6894;52.196;9.904;2023-05-10T10:53:12;3.20;;;1.60;;
13641;SDS011;6894;52.196;9.904;2023-05-10T10:55:45;2.30;;;2.10;;
13641;SDS011;6894;52.196;9.904;2023-05-10T10:58:28;2.80;;;1.63;;
13641;SDS011;6894;52.196;9.904;2023-05-10T11:01:09;2.30;;;2.10;;
13641;SDS011;6894;52.196;9.904;2023-05-10T11:03:38;2.10;;;1.80;;
13641;SDS011;6894;52.196;9.904;2023-05-10T11:06:04;2.33;;;1.97;;
13641;SDS011;6894;52.196;9.904;2023-05-10T11:08:32;3.10;;;2.47;;
13641;SDS011;6894;52.196;9.904;2023-05-10T11:11:04;2.40;;;2.17;;
13641;SDS011;6894;52.196;9.904;2023-05-10T11:13:33;2.80;;;2.10;;
13641;SDS011;6894;52.196;9.904;2023-05-10T11:16:11;2.17;;;1.80;;
13641;SDS011;6894;52.196;9.904;2023-05-10T11:18:40;2.43;;;2.23;;
13641;SDS011;6894;52.196;9.904;2023-05-10T11:21:08;3.37;;;2.47;;
13641;SDS011;6894;52.196;9.904;2023-05-10T11:23:47;3.60;;;2.50;;
13641;SDS011;6894;52.196;9.904;2023-05-10T11:26:15;4.37;;;2.63;;
13641;SDS011;6894;52.196;9.904;2023-05-10T11:28:43;3.97;;;2.93;;
13641;SDS011;6894;52.196;9.904;2023-05-10T11:31:14;3.50;;;2.60;;
13641;SDS011;6894;52.196;9.904;2023-05-10T11:33:45;5.13;;;3.73;;
13641;SDS011;6894;52.196;9.904;2023-05-10T11:36:14;3.87;;;2.30;;
13641;SDS011;6894;52.196;9.904;2023-05-10T11:38:41;8.03;;;5.17;;
13641;SDS011;6894;52.196;9.904;2023-05-10T11:41:08;2.80;;;2.33;;
13641;SDS011;6894;52.196;9.904;2023-05-10T11:43:36;6.23;;;3.67;;
13641;SDS011;6894;52.196;9.904;2023-05-10T11:46:03;3.87;;;2.50;;
13641;SDS011;6894;52.196;9.904;2023-05-10T11:48:32;3.23;;;2.60;;
13641;SDS011;6894;52.196;9.904;2023-05-10T11:51:00;3.23;;;2.57;;
13641;SDS011;6894;52.196;9.904;2023-05-10T11:53:27;3.47;;;3.03;;
13641;SDS011;6894;52.196;9.904;2023-05-10T11:55:54;10.90;;;5.90;;
13641;SDS011;6894;52.196;9.904;2023-05-10T11:58:20;4.70;;;2.73;;
13641;SDS011;6894;52.196;9.904;2023-05-10T12:00:48;2.13;;;1.80;;
13641;SDS011;6894;52.196;9.904;2023-05-10T12:03:16;3.17;;;2.10;;
13641;SDS011;6894;52.196;9.904;2023-05-10T12:05:44;6.20;;;3.33;;
13641;SDS011;6894;52.196;9.904;2023-05-10T12:08:11;4.47;;;2.87;;
13641;SDS011;6894;52.196;9.904;2023-05-10T12:10:39;6.07;;;3.87;;
13641;SDS011;6894;52.196;9.904;2023-05-10T12:13:10;2.40;;;2.03;;
13641;SDS011;6894;52.196;9.904;2023-05-10T12:15:37;3.23;;;2.20;;
13641;SDS011;6894;52.196;9.904;2023-05-10T12:18:04;3.83;;;1.83;;
13641;SDS011;6894;52.196;9.904;2023-05-10T12:20:31;2.97;;;2.20;;
13641;SDS011;6894;52.196;9.904;2023-05-10T12:22:59;2.60;;;2.00;;
13641;SDS011;6894;52.196;9.904;2023-05-10T12:25:29;2.63;;;1.73;;
13641;SDS011;6894;52.196;9.904;2023-05-10T12:27:58;1.77;;;1.40;;
13641;SDS011;6894;52.196;9.904;2023-05-10T12:30:27;2.10;;;1.60;;
13641;SDS011;6894;52.196;9.904;2023-05-10T12:32:59;3.73;;;2.03;;
13641;SDS011;6894;52.196;9.904;2023-05-10T12:35:29;3.90;;;1.70;;
13641;SDS011;6894;52.196;9.904;2023-05-10T12:37:56;2.73;;;2.00;;
13641;SDS011;6894;52.196;9.904;2023-05-10T12:40:25;4.07;;;2.30;;
13641;SDS011;6894;52.196;9.904;2023-05-10T12:42:52;3.43;;;2.90;;
13641;SDS011;6894;52.196;9.904;2023-05-10T12:45:18;5.13;;;2.50;;
13641;SDS011;6894;52.196;9.904;2023-05-10T12:47:45;3.37;;;2.27;;
13641;SDS011;6894;52.196;9.904;2023-05-10T12:50:12;2.63;;;2.43;;
13641;SDS011;6894;52.196;9.904;2023-05-10T12:52:39;3.00;;;2.23;;
13641;SDS011;6894;52.196;9.904;2023-05-10T12:55:06;2.67;;;2.27;;
13641;SDS011;6894;52.196;9.904;2023-05-10T12:57:34;2.43;;;2.00;;
13641;SDS011;6894;52.196;9.904;2023-05-10T13:00:01;3.83;;;2.13;;
13641;SDS011;6894;52.196;9.904;2023-05-10T13:02:29;3.47;;;2.50;;
13641;SDS011;6894;52.196;9.904;2023-05-10T13:04:56;2.93;;;2.10;;
13641;SDS011;6894;52.196;9.904;2023-05-10T13:07:23;5.67;;;2.37;;
13641;SDS011;6894;52.196;9.904;2023-05-10T13:09:50;2.57;;;2.00;;
13641;SDS011;6894;52.196;9.904;2023-05-10T13:12:16;2.60;;;1.97;;
13641;SDS011;6894;52.196;9.904;2023-05-10T13:14:44;2.40;;;2.20;;
13641;SDS011;6894;52.196;9.904;2023-05-10T13:17:11;2.23;;;1.83;;
13641;SDS011;6894;52.196;9.904;2023-05-10T13:19:38;4.53;;;2.07;;
13641;SDS011;6894;52.196;9.904;2023-05-10T13:22:05;3.93;;;2.37;;
13641;SDS011;6894;52.196;9.904;2023-05-10T13:24:31;3.50;;;1.97;;
13641;SDS011;6894;52.196;9.904;2023-05-10T13:26:58;2.77;;;2.20;;
13641;SDS011;6894;52.196;9.904;2023-05-10T13:29:25;3.93;;;2.07;;
13641;SDS011;6894;52.196;9.904;2023-05-10T13:31:53;1.80;;;1.70;;
13641;SDS011;6894;52.196;9.904;2023-05-10T13:34:20;2.23;;;2.03;;
13641;SDS011;6894;52.196;9.904;2023-05-10T13:36:47;2.00;;;1.80;;
13641;SDS011;6894;52.196;9.904;2023-05-10T13:39:14;2.67;;;2.17;;
13641;SDS011;6894;52.196;9.904;2023-05-10T13:41:41;5.30;;;2.60;;
13641;SDS011;6894;52.196;9.904;2023-05-10T13:44:07;3.07;;;2.10;;
13641;SDS011;6894;52.196;9.904;2023-05-10T13:46:34;3.87;;;2.37;;
13641;SDS011;6894;52.196;9.904;2023-05-10T13:49:04;3.23;;;2.40;;
13641;SDS011;6894;52.196;9.904;2023-05-10T13:51:31;1.93;;;1.73;;
13641;SDS011;6894;52.196;9.904;2023-05-10T13:53:57;1.97;;;1.70;;
13641;SDS011;6894;52.196;9.904;2023-05-10T13:56:24;2.30;;;1.50;;
13641;SDS011;6894;52.196;9.904;2023-05-10T13:58:51;2.00;;;1.80;;
13641;SDS011;6894;52.196;9.904;2023-05-10T14:01:18;2.13;;;1.57;;
13641;SDS011;6894;52.196;9.904;2023-05-10T14:03:45;1.60;;;1.50;;
13641;SDS011;6894;52.196;9.904;2023-05-10T14:06:13;1.30;;;1.20;;
13641;SDS011;6894;52.196;9.904;2023-05-10T14:08:40;1.40;;;1.23;;
13641;SDS011;6894;52.196;9.904;2023-05-10T14:11:07;1.40;;;1.30;;
13641;SDS011;6894;52.196;9.904;2023-05-10T14:13:33;1.77;;;1.50;;
13641;SDS011;6894;52.196;9.904;2023-05-10T14:16:00;1.33;;;1.20;;
13641;SDS011;6894;52.196;9.904;2023-05-10T14:18:28;2.07;;;1.20;;
13641;SDS011;6894;52.196;9.904;2023-05-10T14:20:55;2.50;;;1.40;;
13641;SDS011;6894;52.196;9.904;2023-05-10T14:23:23;1.40;;;1.27;;
13641;SDS011;6894;52.196;9.904;2023-05-10T14:25:50;2.67;;;1.50;;
13641;SDS011;6894;52.196;9.904;2023-05-10T14:28:17;1.73;;;1.20;;
13641;SDS011;6894;52.196;9.904;2023-05-10T14:30:45;1.80;;;1.20;;
13641;SDS011;6894;52.196;9.904;2023-05-10T14:33:12;1.80;;;1.37;;
13641;SDS011;6894;52.196;9.904;2023-05-10T14:35:39;1.70;;;1.50;;
13641;SDS011;6894;52.196;9.904;2023-05-10T14:38:06;2.10;;;1.67;;
13641;SDS011;6894;52.196;9.904;2023-05-10T14:40:34;2.90;;;1.80;;
13641;SDS011;6894;52.196;9.904;2023-05-10T14:43:01;1.87;;;1.70;;
13641;SDS011;6894;52.196;9.904;2023-05-10T14:45:28;1.40;;;1.30;;
13641;SDS011;6894;52.196;9.904;2023-05-10T14:47:54;1.40;;;1.20;;
13641;SDS011;6894;52.196;9.904;2023-05-10T14:50:21;1.60;;;1.50;;
13641;SDS011;6894;52.196;9.904;2023-05-10T14:52:48;2.33;;;1.73;;
13641;SDS011;6894;52.196;9.904;2023-05-10T14:55:15;2.37;;;1.80;;
13641;SDS011;6894;52.196;9.904;2023-05-10T14:57:43;2.00;;;1.63;;
13641;SDS011;6894;52.196;9.904;2023-05-10T15:00:12;2.47;;;1.90;;
13641;SDS011;6894;52.196;9.904;2023-05-10T15:02:41;2.80;;;1.90;;
13641;SDS011;6894;52.196;9.904;2023-05-10T15:05:07;1.83;;;1.70;;
13641;SDS011;6894;52.196;9.904;2023-05-10T15:07:34;3.00;;;1.80;;
13641;SDS011;6894;52.196;9.904;2023-05-10T15:10:01;2.60;;;2.37;;
13641;SDS011;6894;52.196;9.904;2023-05-10T15:12:28;2.07;;;1.97;;
13641;SDS011;6894;52.196;9.904;2023-05-10T15:14:56;2.83;;;2.20;;
13641;SDS011;6894;52.196;9.904;2023-05-10T15:17:23;2.63;;;2.43;;